createdAt,value
2022-10-22T00:00:20.414Z,11.91
2022-10-22T00:02:49.262Z,12.11
2022-10-22T00:05:22.122Z,12.18
2022-10-22T00:07:50.971Z,12.24
2022-10-22T00:10:20.034Z,12.18
2022-10-22T00:12:49.124Z,12.10
2022-10-22T00:15:18.083Z,12.13
2022-10-22T00:17:47.257Z,11.97
2022-10-22T00:20:16.427Z,11.85
2022-10-22T00:22:46.899Z,11.94
2022-10-22T00:25:16.582Z,11.75
2022-10-22T00:27:45.700Z,11.74
2022-10-22T00:30:15.263Z,11.68
2022-10-22T00:32:44.342Z,11.69
2022-10-22T00:35:13.688Z,11.77
2022-10-22T00:37:42.730Z,11.87
2022-10-22T00:40:14.454Z,11.97
2022-10-22T00:42:43.779Z,12.04
2022-10-22T00:45:26.205Z,11.98
2022-10-22T00:48:01.301Z,12.00
2022-10-22T00:50:42.256Z,11.98
2022-10-22T00:53:18.344Z,11.99
2022-10-22T00:55:54.835Z,12.05
2022-10-22T00:58:28.863Z,12.16
2022-10-22T01:00:59.398Z,12.35
2022-10-22T01:03:28.515Z,12.48
2022-10-22T01:06:01.720Z,12.59
2022-10-22T01:08:45.585Z,12.61
2022-10-22T01:11:28.449Z,12.71
2022-10-22T01:14:11.005Z,12.75
2022-10-22T01:16:51.489Z,12.70
2022-10-22T01:19:47.885Z,12.75
2022-10-22T01:22:26.153Z,12.74
2022-10-22T01:24:59.968Z,12.76
2022-10-22T01:27:48.430Z,12.79
2022-10-22T01:30:20.530Z,12.85
2022-10-22T01:32:55.304Z,12.85
2022-10-22T01:35:30.895Z,12.91
2022-10-22T01:38:07.884Z,12.87
2022-10-22T01:40:38.454Z,12.89
2022-10-22T01:43:10.443Z,12.87
2022-10-22T01:45:46.246Z,12.92
2022-10-22T01:48:36.122Z,12.92
2022-10-22T01:51:31.500Z,13.00
2022-10-22T01:54:09.408Z,13.02
2022-10-22T01:57:01.129Z,13.00
2022-10-22T01:59:46.665Z,12.98
2022-10-22T02:02:30.795Z,12.91
2022-10-22T02:05:08.981Z,12.94
2022-10-22T02:07:41.534Z,12.93
2022-10-22T02:10:13.307Z,12.95
2022-10-22T02:12:46.380Z,12.97
2022-10-22T02:15:20.114Z,12.93
2022-10-22T02:17:52.761Z,12.89
2022-10-22T02:20:28.997Z,12.92
2022-10-22T02:22:59.764Z,12.93
2022-10-22T02:25:36.043Z,12.96
2022-10-22T02:28:15.445Z,12.95
2022-10-22T02:30:52.113Z,12.88
2022-10-22T02:33:28.122Z,12.77
2022-10-22T02:35:59.856Z,12.76
2022-10-22T02:38:30.647Z,12.64
2022-10-22T02:41:00.632Z,12.67
2022-10-22T02:43:31.040Z,12.75
2022-10-22T02:46:00.138Z,12.91
2022-10-22T02:48:30.835Z,12.93
2022-10-22T02:51:00.510Z,12.92
2022-10-22T02:53:29.498Z,12.94
2022-10-22T02:55:58.415Z,13.00
2022-10-22T02:58:27.397Z,13.03
2022-10-22T03:00:56.388Z,13.04
2022-10-22T03:03:25.415Z,13.07
2022-10-22T03:05:55.817Z,13.06
2022-10-22T03:08:24.848Z,13.08
2022-10-22T03:10:54.029Z,13.05
2022-10-22T03:13:23.114Z,13.04
2022-10-22T03:15:52.707Z,13.07
2022-10-22T03:18:21.690Z,13.09
2022-10-22T03:20:50.670Z,13.10
2022-10-22T03:23:22.258Z,13.10
2022-10-22T03:25:52.007Z,13.08
2022-10-22T03:28:21.767Z,13.12
2022-10-22T03:30:50.816Z,13.06
2022-10-22T03:33:19.843Z,13.05
2022-10-22T03:35:49.951Z,13.03
2022-10-22T03:38:20.400Z,13.16
2022-10-22T03:40:49.971Z,13.15
2022-10-22T03:43:19.612Z,13.10
2022-10-22T03:45:48.496Z,13.07
2022-10-22T03:48:17.759Z,13.08
2022-10-22T03:50:46.810Z,13.14
2022-10-22T03:53:15.777Z,13.12
2022-10-22T03:55:48.813Z,13.08
2022-10-22T03:58:17.892Z,13.02
2022-10-22T04:00:47.184Z,13.02
2022-10-22T04:03:16.222Z,13.05
2022-10-22T04:05:45.197Z,13.09
2022-10-22T04:08:14.415Z,13.13
2022-10-22T04:10:51.875Z,13.11
2022-10-22T04:13:21.209Z,13.04
2022-10-22T04:15:52.089Z,13.10
2022-10-22T04:18:21.811Z,13.17
2022-10-22T04:20:52.826Z,13.19
2022-10-22T04:23:21.895Z,13.14
2022-10-22T04:25:58.542Z,13.17
2022-10-22T04:28:27.610Z,13.18
2022-10-22T04:30:56.847Z,13.15
2022-10-22T04:33:26.086Z,13.18
2022-10-22T04:35:55.086Z,13.14
2022-10-22T04:38:24.570Z,13.18
2022-10-22T04:40:55.094Z,13.17
2022-10-22T04:43:24.109Z,13.16
2022-10-22T04:45:53.109Z,13.13
2022-10-22T04:48:22.057Z,13.10
2022-10-22T04:50:52.889Z,13.10
2022-10-22T04:53:21.855Z,13.01
2022-10-22T04:55:50.839Z,12.96
2022-10-22T04:58:21.558Z,12.88
2022-10-22T05:00:50.528Z,12.73
2022-10-22T05:03:22.188Z,12.56
2022-10-22T05:05:51.549Z,12.49
2022-10-22T05:08:20.462Z,12.32
2022-10-22T05:10:49.414Z,12.22
2022-10-22T05:13:18.437Z,12.15
2022-10-22T05:15:49.068Z,11.99
2022-10-22T05:18:21.751Z,11.85
2022-10-22T05:20:51.494Z,11.85
2022-10-22T05:23:20.513Z,11.90
2022-10-22T05:25:49.521Z,11.78
2022-10-22T05:28:18.621Z,11.69
2022-10-22T05:30:57.073Z,11.56
2022-10-22T05:33:26.110Z,11.43
2022-10-22T05:35:55.459Z,11.43
2022-10-22T05:38:25.877Z,11.53
2022-10-22T05:41:06.202Z,11.54
2022-10-22T05:43:35.981Z,11.54
2022-10-22T05:46:08.493Z,11.49
2022-10-22T05:48:37.874Z,11.45
2022-10-22T05:51:10.007Z,11.41
2022-10-22T05:53:42.251Z,11.31
2022-10-22T05:56:13.859Z,11.20
2022-10-22T05:58:44.085Z,11.03
2022-10-22T06:01:18.284Z,10.83
2022-10-22T06:03:48.797Z,10.71
2022-10-22T06:06:27.303Z,10.63
2022-10-22T06:09:01.199Z,10.59
2022-10-22T06:11:34.124Z,10.56
2022-10-22T06:14:04.590Z,10.55
2022-10-22T06:16:37.816Z,10.57
2022-10-22T06:19:06.766Z,10.66
2022-10-22T06:21:35.917Z,10.79
2022-10-22T06:24:05.335Z,10.92
2022-10-22T06:26:34.278Z,11.21
2022-10-22T06:29:05.785Z,11.50
2022-10-22T06:31:37.939Z,11.61
2022-10-22T06:34:08.502Z,11.65
2022-10-22T06:36:37.602Z,11.77
2022-10-22T06:39:07.393Z,11.87
2022-10-22T06:41:36.617Z,11.89
2022-10-22T06:44:05.990Z,11.89
2022-10-22T06:46:38.111Z,11.90
2022-10-22T06:49:14.959Z,11.90
2022-10-22T06:51:44.175Z,11.92
2022-10-22T06:54:13.474Z,11.98
2022-10-22T06:56:42.863Z,12.04
2022-10-22T06:59:12.033Z,12.10
2022-10-22T07:01:42.967Z,12.12
2022-10-22T07:04:12.909Z,12.21
2022-10-22T07:06:41.922Z,12.24
2022-10-22T07:09:11.280Z,12.30
2022-10-22T07:11:44.548Z,12.37
2022-10-22T07:14:14.931Z,12.41
2022-10-22T07:16:45.979Z,12.45
2022-10-22T07:19:15.349Z,12.51
2022-10-22T07:21:44.552Z,12.53
2022-10-22T07:24:13.633Z,12.71
2022-10-22T07:26:42.502Z,12.92
2022-10-22T07:29:11.635Z,12.96
2022-10-22T07:31:40.592Z,12.98
2022-10-22T07:34:11.353Z,13.09
2022-10-22T07:36:40.346Z,13.16
2022-10-22T07:39:09.387Z,13.23
2022-10-22T07:41:38.594Z,13.41
2022-10-22T07:44:07.588Z,13.40
2022-10-22T07:46:36.686Z,13.51
2022-10-22T07:49:05.794Z,13.62
2022-10-22T07:51:36.618Z,13.66
2022-10-22T07:54:06.387Z,13.79
2022-10-22T07:56:36.423Z,13.80
2022-10-22T07:59:05.445Z,13.91
2022-10-22T08:01:34.656Z,13.87
2022-10-22T08:04:03.527Z,13.93
2022-10-22T08:06:32.529Z,14.02
2022-10-22T08:09:03.147Z,14.08
2022-10-22T08:11:33.723Z,14.16
2022-10-22T08:14:02.831Z,14.23
2022-10-22T08:16:32.084Z,14.31
2022-10-22T08:19:02.930Z,14.35
2022-10-22T08:21:32.302Z,14.49
2022-10-22T08:24:02.738Z,14.62
2022-10-22T08:26:31.792Z,14.71
2022-10-22T08:29:00.885Z,14.82
2022-10-22T08:31:29.943Z,15.01
2022-10-22T08:33:58.961Z,15.04
2022-10-22T08:36:28.008Z,15.07
2022-10-22T08:38:57.102Z,15.15
2022-10-22T08:41:28.090Z,15.22
2022-10-22T08:44:34.169Z,15.42
2022-10-22T08:47:24.727Z,15.47
2022-10-22T08:49:57.379Z,15.62
2022-10-22T08:52:27.704Z,15.78
2022-10-22T08:55:00.241Z,15.80
2022-10-22T08:57:52.315Z,16.02
2022-10-22T09:00:29.739Z,15.73
2022-10-22T09:03:13.671Z,16.12
2022-10-22T09:05:56.394Z,16.26
2022-10-22T09:08:25.649Z,15.99
2022-10-22T09:11:04.888Z,15.96
2022-10-22T09:13:35.422Z,16.02
2022-10-22T09:16:18.896Z,16.05
2022-10-22T09:19:04.592Z,16.08
2022-10-22T09:21:47.918Z,16.17
2022-10-22T09:24:33.377Z,16.10
2022-10-22T09:27:04.277Z,16.17
2022-10-22T09:29:36.456Z,16.30
2022-10-22T09:32:06.770Z,16.40
2022-10-22T09:34:35.863Z,16.61
2022-10-22T09:37:08.694Z,16.69
2022-10-22T09:39:42.055Z,16.83
2022-10-22T09:42:16.101Z,16.31
2022-10-22T09:44:54.306Z,16.88
2022-10-22T09:47:57.025Z,16.87
2022-10-22T09:50:31.298Z,17.06
2022-10-22T09:53:06.151Z,16.93
2022-10-22T09:55:35.120Z,17.01
2022-10-22T09:58:04.137Z,17.15
2022-10-22T10:00:34.671Z,17.20
2022-10-22T10:03:03.777Z,17.28
2022-10-22T10:05:37.770Z,17.12
2022-10-22T10:08:16.102Z,17.22
2022-10-22T10:10:52.751Z,17.30
2022-10-22T10:13:53.330Z,17.34
2022-10-22T10:16:45.485Z,17.64
2022-10-22T10:19:35.758Z,17.88
2022-10-22T10:22:22.547Z,17.97
2022-10-22T10:25:18.225Z,18.05
2022-10-22T10:27:58.616Z,18.49
2022-10-22T10:30:28.248Z,18.38
2022-10-22T10:33:25.490Z,18.58
2022-10-22T10:36:03.416Z,18.48
2022-10-22T10:38:47.900Z,18.46
2022-10-22T10:41:32.129Z,18.45
2022-10-22T10:44:49.098Z,18.11
2022-10-22T10:47:43.438Z,17.36
2022-10-22T10:50:28.215Z,17.45
2022-10-22T10:53:16.091Z,17.79
2022-10-22T10:56:02.458Z,17.98
2022-10-22T10:58:47.200Z,18.59
2022-10-22T11:01:29.041Z,18.38
2022-10-22T11:04:22.608Z,18.29
2022-10-22T11:07:10.741Z,18.16
2022-10-22T11:09:47.615Z,17.88
2022-10-22T11:12:26.440Z,17.82
2022-10-22T11:15:04.705Z,17.83
2022-10-22T11:17:41.713Z,17.82
2022-10-22T11:20:21.425Z,18.01
2022-10-22T11:23:19.009Z,18.37
2022-10-22T11:25:51.526Z,18.94
2022-10-22T11:28:29.022Z,19.26
2022-10-22T11:31:06.090Z,18.95
2022-10-22T11:33:46.566Z,19.63
2022-10-22T11:36:19.924Z,19.87
2022-10-22T11:38:51.037Z,20.00
2022-10-22T11:41:25.744Z,20.13
2022-10-22T11:44:14.711Z,20.06
2022-10-22T11:46:48.474Z,19.92
2022-10-22T11:49:28.745Z,20.02
2022-10-22T11:52:28.536Z,20.43
2022-10-22T11:55:03.969Z,20.23
2022-10-22T11:57:40.288Z,19.96
2022-10-22T12:00:37.008Z,19.82
2022-10-22T12:03:18.068Z,20.08
2022-10-22T12:05:48.112Z,19.88
2022-10-22T12:08:28.237Z,20.05
2022-10-22T12:11:15.183Z,20.35
2022-10-22T12:14:20.899Z,20.43
2022-10-22T12:16:57.830Z,20.06
2022-10-22T12:19:32.412Z,19.48
2022-10-22T12:22:14.684Z,19.63
2022-10-22T12:24:47.377Z,20.15
2022-10-22T12:27:27.993Z,20.49
2022-10-22T12:29:59.087Z,20.47
2022-10-22T12:32:38.881Z,20.63
2022-10-22T12:35:10.769Z,20.93
2022-10-22T12:37:40.276Z,21.42
2022-10-22T12:40:21.427Z,21.31
2022-10-22T12:42:53.577Z,20.79
2022-10-22T12:45:22.895Z,20.66
2022-10-22T12:47:59.787Z,20.64
2022-10-22T12:50:38.340Z,20.19
2022-10-22T12:53:08.484Z,20.18
2022-10-22T12:55:37.547Z,20.26
2022-10-22T12:58:09.521Z,19.97
2022-10-22T13:00:38.184Z,20.12
2022-10-22T13:03:10.435Z,20.53
2022-10-22T13:05:40.240Z,20.99
2022-10-22T13:08:14.967Z,21.40
2022-10-22T13:10:52.379Z,21.36
2022-10-22T13:13:43.727Z,20.78
2022-10-22T13:16:24.423Z,20.78
2022-10-22T13:18:55.426Z,19.82
2022-10-22T13:21:30.885Z,18.94
2022-10-22T13:24:03.747Z,18.62
2022-10-22T13:26:37.421Z,18.50
2022-10-22T13:29:14.888Z,18.17
2022-10-22T13:31:50.168Z,18.07
2022-10-22T13:34:22.272Z,17.95
2022-10-22T13:36:50.870Z,17.87
2022-10-22T13:39:22.115Z,17.68
2022-10-22T13:41:52.426Z,17.58
2022-10-22T13:44:22.875Z,17.56
2022-10-22T13:46:52.442Z,17.55
2022-10-22T13:49:23.918Z,17.61
2022-10-22T13:51:53.838Z,17.68
2022-10-22T13:54:26.905Z,17.64
2022-10-22T13:56:55.923Z,17.62
2022-10-22T13:59:26.219Z,17.54
2022-10-22T14:01:57.221Z,17.46
2022-10-22T14:04:26.593Z,17.35
2022-10-22T14:07:00.010Z,17.31
2022-10-22T14:09:31.838Z,17.27
2022-10-22T14:12:00.732Z,17.22
2022-10-22T14:14:31.128Z,17.11
2022-10-22T14:17:00.279Z,16.99
2022-10-22T14:19:29.541Z,16.92
2022-10-22T14:21:59.001Z,16.87
2022-10-22T14:24:28.053Z,16.85
2022-10-22T14:26:57.013Z,16.89
2022-10-22T14:29:26.006Z,16.93
2022-10-22T14:31:56.298Z,16.95
2022-10-22T14:34:27.516Z,17.01
2022-10-22T14:36:56.930Z,17.03
2022-10-22T14:39:25.913Z,17.02
2022-10-22T14:41:55.087Z,16.99
2022-10-22T14:44:24.461Z,16.88
2022-10-22T14:46:56.383Z,16.75
2022-10-22T14:49:27.021Z,16.83
2022-10-22T14:51:56.193Z,16.81
2022-10-22T14:54:25.232Z,16.81
2022-10-22T14:56:54.181Z,16.82
2022-10-22T14:59:23.096Z,16.83
2022-10-22T15:01:52.277Z,16.85
2022-10-22T15:04:21.527Z,16.75
2022-10-22T15:06:56.390Z,16.72
2022-10-22T15:09:26.073Z,16.70
2022-10-22T15:11:54.928Z,16.52
2022-10-22T15:14:24.214Z,16.44
2022-10-22T15:16:53.099Z,16.30
2022-10-22T15:19:22.184Z,16.08
2022-10-22T15:21:52.653Z,16.02
2022-10-22T15:24:21.693Z,15.91
2022-10-22T15:26:51.246Z,15.73
2022-10-22T15:29:20.529Z,15.63
2022-10-22T15:31:52.766Z,15.51
2022-10-22T15:34:25.069Z,15.51
2022-10-22T15:36:57.873Z,15.31
2022-10-22T15:39:27.720Z,15.33
2022-10-22T15:41:57.830Z,15.35
2022-10-22T15:44:29.893Z,15.34
2022-10-22T15:46:59.872Z,15.35
2022-10-22T15:49:30.433Z,15.27
2022-10-22T15:52:00.811Z,15.23
2022-10-22T15:54:32.203Z,15.22
2022-10-22T15:57:03.725Z,15.15
2022-10-22T15:59:32.932Z,15.14
2022-10-22T16:02:01.765Z,15.11
2022-10-22T16:04:31.067Z,15.05
2022-10-22T16:07:01.510Z,15.00
2022-10-22T16:09:30.606Z,14.94
2022-10-22T16:11:59.754Z,14.89
2022-10-22T16:14:29.124Z,14.95
2022-10-22T16:16:59.780Z,14.92
2022-10-22T16:19:29.085Z,14.94
2022-10-22T16:21:59.659Z,14.95
2022-10-22T16:24:30.895Z,15.12
2022-10-22T16:27:00.438Z,15.22
2022-10-22T16:29:29.757Z,15.24
2022-10-22T16:31:58.667Z,15.23
2022-10-22T16:34:28.880Z,15.31
2022-10-22T16:36:58.088Z,15.28
2022-10-22T16:39:28.624Z,15.28
2022-10-22T16:41:57.637Z,15.25
2022-10-22T16:44:26.748Z,15.23
2022-10-22T16:46:55.842Z,15.17
2022-10-22T16:49:25.129Z,15.21
2022-10-22T16:51:57.100Z,15.18
2022-10-22T16:54:26.234Z,15.14
2022-10-22T16:56:58.538Z,15.02
2022-10-22T16:59:27.501Z,14.97
2022-10-22T17:01:56.770Z,14.94
2022-10-22T17:04:26.365Z,14.89
2022-10-22T17:06:55.591Z,14.90
2022-10-22T17:09:24.754Z,14.84
2022-10-22T17:11:53.805Z,14.72
2022-10-22T17:14:24.397Z,14.63
2022-10-22T17:16:54.372Z,14.56
2022-10-22T17:19:25.238Z,14.56
2022-10-22T17:21:54.490Z,14.46
2022-10-22T17:24:23.565Z,14.39
2022-10-22T17:26:52.723Z,14.39
2022-10-22T17:29:23.292Z,14.33
2022-10-22T17:31:52.792Z,14.31
2022-10-22T17:34:21.827Z,14.26
2022-10-22T17:36:50.788Z,14.15
2022-10-22T17:39:19.991Z,14.02
2022-10-22T17:41:49.196Z,13.94
2022-10-22T17:44:18.762Z,13.97
2022-10-22T17:46:49.863Z,13.99
2022-10-22T17:49:21.897Z,13.98
2022-10-22T17:51:51.253Z,14.01
2022-10-22T17:54:21.535Z,14.02
2022-10-22T17:56:50.704Z,14.13
2022-10-22T17:59:20.043Z,14.21
2022-10-22T18:01:50.549Z,14.23
2022-10-22T18:04:22.215Z,14.28
2022-10-22T18:06:51.275Z,14.43
2022-10-22T18:09:21.253Z,14.56
2022-10-22T18:11:51.754Z,14.68
2022-10-22T18:14:23.018Z,14.79
2022-10-22T18:16:54.863Z,14.90
2022-10-22T18:19:24.988Z,15.00
2022-10-22T18:21:54.116Z,15.22
2022-10-22T18:24:23.226Z,15.29
2022-10-22T18:26:52.671Z,15.25
2022-10-22T18:29:22.098Z,15.19
2022-10-22T18:31:52.843Z,15.04
2022-10-22T18:34:23.912Z,14.85
2022-10-22T18:36:55.534Z,14.78
2022-10-22T18:39:24.584Z,14.77
2022-10-22T18:41:53.632Z,14.65
2022-10-22T18:44:23.916Z,14.64
2022-10-22T18:46:54.320Z,14.59
2022-10-22T18:49:23.312Z,14.57
2022-10-22T18:51:53.158Z,14.59
2022-10-22T18:54:23.803Z,14.55
2022-10-22T18:56:55.525Z,14.55
2022-10-22T18:59:28.624Z,14.56
2022-10-22T19:02:00.603Z,14.49
2022-10-22T19:04:36.855Z,14.48
2022-10-22T19:07:06.589Z,14.49
2022-10-22T19:09:35.731Z,14.46
2022-10-22T19:12:05.109Z,14.54
2022-10-22T19:14:34.444Z,14.50
2022-10-22T19:17:05.074Z,14.52
2022-10-22T19:19:34.282Z,14.52
2022-10-22T19:22:03.326Z,14.69
2022-10-22T19:24:32.283Z,14.61
2022-10-22T19:27:01.238Z,14.70
2022-10-22T19:29:30.354Z,14.78
2022-10-22T19:31:59.939Z,14.76
2022-10-22T19:34:30.501Z,14.88
2022-10-22T19:37:00.603Z,14.77
2022-10-22T19:39:29.690Z,14.75
2022-10-22T19:41:58.622Z,14.71
2022-10-22T19:44:27.591Z,14.77
2022-10-22T19:46:56.841Z,14.70
2022-10-22T19:49:25.870Z,14.78
2022-10-22T19:51:56.318Z,14.75
2022-10-22T19:54:25.435Z,14.79
2022-10-22T19:56:54.834Z,14.81
2022-10-22T19:59:27.265Z,14.80
2022-10-22T20:01:58.862Z,14.86
2022-10-22T20:04:28.376Z,14.83
2022-10-22T20:06:58.865Z,14.88
2022-10-22T20:09:28.056Z,14.87
2022-10-22T20:11:57.100Z,14.86
2022-10-22T20:14:26.113Z,14.90
2022-10-22T20:16:55.294Z,14.88
2022-10-22T20:19:26.313Z,14.89
2022-10-22T20:21:55.677Z,14.89
2022-10-22T20:24:26.240Z,14.90
2022-10-22T20:26:55.440Z,14.88
2022-10-22T20:29:24.716Z,14.88
2022-10-22T20:31:54.221Z,14.81
2022-10-22T20:34:23.367Z,14.60
2022-10-22T20:36:52.399Z,14.46
2022-10-22T20:39:21.304Z,14.41
2022-10-22T20:41:54.537Z,14.38
2022-10-22T20:44:26.910Z,14.31
2022-10-22T20:49:30.097Z,14.18
2022-10-22T20:51:59.369Z,14.10
2022-10-22T20:54:28.391Z,14.02
2022-10-22T20:56:59.605Z,13.93
2022-10-22T20:59:33.220Z,13.92
2022-10-22T21:02:02.723Z,13.89
2022-10-22T21:04:31.839Z,13.91
2022-10-22T21:07:01.077Z,13.81
2022-10-22T21:09:30.065Z,13.87
2022-10-22T21:12:03.622Z,13.87
2022-10-22T21:14:34.160Z,13.84
2022-10-22T21:17:03.188Z,13.75
2022-10-22T21:19:32.625Z,13.80
2022-10-22T21:22:01.919Z,13.75
2022-10-22T21:24:31.181Z,13.62
2022-10-22T21:27:02.793Z,13.58
2022-10-22T21:29:31.974Z,13.62
2022-10-22T21:32:01.099Z,13.60
2022-10-22T21:34:31.190Z,13.63
2022-10-22T21:37:01.854Z,13.63
2022-10-22T21:39:31.750Z,13.64
2022-10-22T21:42:02.503Z,13.65
2022-10-22T21:44:31.555Z,13.63
2022-10-22T21:47:00.655Z,13.57
2022-10-22T21:49:29.990Z,13.59
2022-10-22T21:52:00.292Z,13.56
2022-10-22T21:54:29.399Z,13.60
2022-10-22T21:56:58.436Z,13.61
2022-10-22T21:59:32.372Z,13.66
2022-10-22T22:02:04.947Z,13.68
2022-10-22T22:04:35.273Z,13.73
2022-10-22T22:07:04.264Z,13.68
2022-10-22T22:09:33.516Z,13.74
2022-10-22T22:12:04.059Z,13.67
2022-10-22T22:14:34.866Z,13.62
2022-10-22T22:17:04.055Z,13.59
2022-10-22T22:19:33.044Z,13.61
2022-10-22T22:22:02.139Z,13.60
2022-10-22T22:24:31.191Z,13.60
2022-10-22T22:27:00.661Z,13.54
2022-10-22T22:29:29.538Z,13.55
2022-10-22T22:32:00.096Z,13.46
2022-10-22T22:34:29.084Z,13.48
2022-10-22T22:36:58.184Z,13.51
2022-10-22T22:39:27.488Z,13.45
2022-10-22T22:41:56.434Z,13.42
2022-10-22T22:44:25.788Z,13.42
2022-10-22T22:46:55.132Z,13.51
2022-10-22T22:49:25.668Z,13.48
2022-10-22T22:51:54.680Z,13.50
2022-10-22T22:54:23.558Z,13.54
2022-10-22T22:56:52.838Z,13.62
2022-10-22T22:59:22.135Z,13.60
2022-10-22T23:01:51.843Z,13.58
2022-10-22T23:04:26.840Z,13.62
2022-10-22T23:06:57.364Z,13.60
2022-10-22T23:09:26.342Z,13.66
2022-10-22T23:11:55.691Z,13.66
2022-10-22T23:14:24.818Z,13.67
2022-10-22T23:16:55.156Z,13.71
2022-10-22T23:19:25.168Z,13.75
2022-10-22T23:21:57.525Z,13.77
2022-10-22T23:24:29.917Z,13.73
2022-10-22T23:27:02.892Z,13.59
2022-10-22T23:29:36.098Z,13.63
2022-10-22T23:32:09.931Z,13.65
2022-10-22T23:34:39.714Z,13.56
2022-10-22T23:37:12.317Z,13.57
2022-10-22T23:39:41.231Z,13.70
2022-10-22T23:42:10.261Z,13.67
2022-10-22T23:44:39.193Z,13.65
2022-10-22T23:47:08.169Z,13.73
2022-10-22T23:49:37.315Z,13.60
2022-10-22T23:52:06.502Z,13.53
2022-10-22T23:54:37.173Z,13.47
2022-10-22T23:57:06.369Z,13.49
2022-10-22T23:59:35.378Z,13.35
